sensor_id;sensor_type;location;lat;lon;timestamp;pressure;altitude;pressure_sealevel;temperature;humidity
84859;BME280;75115;42.984;23.244;2024-03-25T00:01:06;94040.78;;;4.37;73.43
84859;BME280;75115;42.984;23.244;2024-03-25T00:03:31;94039.69;;;4.31;74.32
84859;BME280;75115;42.984;23.244;2024-03-25T00:05:56;94043.56;;;4.19;73.44
84859;BME280;75115;42.984;23.244;2024-03-25T00:08:22;94046.59;;;4.31;73.83
84859;BME280;75115;42.984;23.244;2024-03-25T00:10:48;94024.44;;;4.30;73.19
84859;BME280;75115;42.984;23.244;2024-03-25T00:13:13;94030.41;;;4.30;72.51
84859;BME280;75115;42.984;23.244;2024-03-25T00:15:38;94035.06;;;4.27;73.46
84859;BME280;75115;42.984;23.244;2024-03-25T00:18:04;94034.91;;;4.12;73.97
84859;BME280;75115;42.984;23.244;2024-03-25T00:20:30;94032.34;;;4.12;73.99
84859;BME280;75115;42.984;23.244;2024-03-25T00:22:55;94038.28;;;4.04;73.89
84859;BME280;75115;42.984;23.244;2024-03-25T00:25:20;94027.06;;;3.89;74.25
84859;BME280;75115;42.984;23.244;2024-03-25T00:27:46;94025.13;;;3.83;74.94
84859;BME280;75115;42.984;23.244;2024-03-25T00:30:12;94028.00;;;3.96;74.07
84859;BME280;75115;42.984;23.244;2024-03-25T00:32:37;94028.50;;;3.91;74.94
84859;BME280;75115;42.984;23.244;2024-03-25T00:35:03;94023.84;;;3.87;74.36
84859;BME280;75115;42.984;23.244;2024-03-25T00:37:29;94012.97;;;3.68;74.63
84859;BME280;75115;42.984;23.244;2024-03-25T00:39:54;94009.44;;;3.61;75.08
84859;BME280;75115;42.984;23.244;2024-03-25T00:42:20;94012.34;;;3.50;75.29
84859;BME280;75115;42.984;23.244;2024-03-25T00:44:45;94009.75;;;3.42;75.77
84859;BME280;75115;42.984;23.244;2024-03-25T00:47:10;94005.44;;;3.34;76.64
84859;BME280;75115;42.984;23.244;2024-03-25T00:49:36;93999.97;;;3.29;76.26
84859;BME280;75115;42.984;23.244;2024-03-25T00:52:01;94000.13;;;3.36;76.09
84859;BME280;75115;42.984;23.244;2024-03-25T00:54:27;93989.09;;;3.35;76.77
84859;BME280;75115;42.984;23.244;2024-03-25T00:56:52;93994.38;;;3.34;76.43
84859;BME280;75115;42.984;23.244;2024-03-25T00:59:18;93995.78;;;3.28;76.64
84859;BME280;75115;42.984;23.244;2024-03-25T01:01:44;94010.38;;;3.28;77.80
84859;BME280;75115;42.984;23.244;2024-03-25T01:04:09;94012.78;;;3.21;77.19
84859;BME280;75115;42.984;23.244;2024-03-25T01:06:35;94020.94;;;3.33;77.46
84859;BME280;75115;42.984;23.244;2024-03-25T01:09:00;94008.16;;;3.24;77.06
84859;BME280;75115;42.984;23.244;2024-03-25T01:11:25;94009.91;;;3.48;77.09
84859;BME280;75115;42.984;23.244;2024-03-25T01:13:51;94005.44;;;3.50;75.94
84859;BME280;75115;42.984;23.244;2024-03-25T01:16:16;93996.00;;;3.51;75.02
84859;BME280;75115;42.984;23.244;2024-03-25T01:18:42;93992.47;;;3.60;75.01
84859;BME280;75115;42.984;23.244;2024-03-25T01:21:08;93996.13;;;3.66;75.57
84859;BME280;75115;42.984;23.244;2024-03-25T01:23:33;93993.91;;;3.38;76.01
84859;BME280;75115;42.984;23.244;2024-03-25T01:25:59;94001.25;;;3.49;75.25
84859;BME280;75115;42.984;23.244;2024-03-25T01:28:25;94011.66;;;3.40;75.61
84859;BME280;75115;42.984;23.244;2024-03-25T01:30:51;94013.44;;;3.47;75.61
84859;BME280;75115;42.984;23.244;2024-03-25T01:33:17;94016.97;;;3.55;75.84
84859;BME280;75115;42.984;23.244;2024-03-25T01:35:43;94011.19;;;3.53;75.87
84859;BME280;75115;42.984;23.244;2024-03-25T01:38:08;94010.88;;;3.47;75.26
84859;BME280;75115;42.984;23.244;2024-03-25T01:40:34;94024.19;;;3.51;76.04
84859;BME280;75115;42.984;23.244;2024-03-25T01:43:01;94020.16;;;3.57;75.49
84859;BME280;75115;42.984;23.244;2024-03-25T01:45:29;94011.03;;;3.62;75.87
84859;BME280;75115;42.984;23.244;2024-03-25T01:48:01;94012.78;;;3.54;75.48
84859;BME280;75115;42.984;23.244;2024-03-25T01:50:28;93999.03;;;3.46;75.34
84859;BME280;75115;42.984;23.244;2024-03-25T01:52:54;94013.94;;;3.43;75.36
84859;BME280;75115;42.984;23.244;2024-03-25T01:55:24;94012.16;;;3.43;75.83
84859;BME280;75115;42.984;23.244;2024-03-25T01:57:51;94001.59;;;3.38;75.49
84859;BME280;75115;42.984;23.244;2024-03-25T02:00:16;94015.81;;;3.33;75.65
84859;BME280;75115;42.984;23.244;2024-03-25T02:02:43;94017.56;;;3.16;77.05
84859;BME280;75115;42.984;23.244;2024-03-25T02:05:13;94008.44;;;3.13;76.16
84859;BME280;75115;42.984;23.244;2024-03-25T02:07:40;94005.22;;;3.19;76.86
84859;BME280;75115;42.984;23.244;2024-03-25T02:10:07;94008.44;;;3.13;77.32
84859;BME280;75115;42.984;23.244;2024-03-25T02:12:40;94015.78;;;3.08;77.14
84859;BME280;75115;42.984;23.244;2024-03-25T02:15:07;94010.78;;;2.98;77.29
84859;BME280;75115;42.984;23.244;2024-03-25T02:17:33;94015.00;;;3.08;76.67
84859;BME280;75115;42.984;23.244;2024-03-25T02:19:58;94003.78;;;3.09;77.32
84859;BME280;75115;42.984;23.244;2024-03-25T02:22:24;94013.38;;;3.07;76.52
84859;BME280;75115;42.984;23.244;2024-03-25T02:24:51;94015.94;;;3.07;76.00
84859;BME280;75115;42.984;23.244;2024-03-25T02:27:17;94017.56;;;3.08;76.58
84859;BME280;75115;42.984;23.244;2024-03-25T02:29:43;94006.00;;;3.12;76.22
84859;BME280;75115;42.984;23.244;2024-03-25T02:32:09;93996.59;;;3.12;75.50
84859;BME280;75115;42.984;23.244;2024-03-25T02:34:44;93992.41;;;3.19;76.16
84859;BME280;75115;42.984;23.244;2024-03-25T02:37:10;94001.06;;;3.10;75.28
84859;BME280;75115;42.984;23.244;2024-03-25T02:39:36;94003.00;;;3.08;76.20
84859;BME280;75115;42.984;23.244;2024-03-25T02:42:02;94015.47;;;3.11;75.91
84859;BME280;75115;42.984;23.244;2024-03-25T02:44:28;94022.84;;;3.14;76.09
84859;BME280;75115;42.984;23.244;2024-03-25T02:46:53;94019.78;;;3.11;75.98
84859;BME280;75115;42.984;23.244;2024-03-25T02:49:19;94029.72;;;3.14;75.87
84859;BME280;75115;42.984;23.244;2024-03-25T02:51:45;94042.22;;;3.17;75.36
84859;BME280;75115;42.984;23.244;2024-03-25T02:54:10;94024.41;;;3.07;75.90
84859;BME280;75115;42.984;23.244;2024-03-25T02:56:36;94026.38;;;3.13;76.27
84859;BME280;75115;42.984;23.244;2024-03-25T02:59:02;94034.34;;;3.10;76.01
84859;BME280;75115;42.984;23.244;2024-03-25T03:01:27;94034.84;;;3.14;75.28
84859;BME280;75115;42.984;23.244;2024-03-25T03:03:52;94037.41;;;3.14;76.11
84859;BME280;75115;42.984;23.244;2024-03-25T03:06:18;94041.75;;;3.21;74.81
84859;BME280;75115;42.984;23.244;2024-03-25T03:08:44;94063.03;;;3.14;76.11
84859;BME280;75115;42.984;23.244;2024-03-25T03:11:09;94055.50;;;3.12;76.34
84859;BME280;75115;42.984;23.244;2024-03-25T03:13:34;94029.25;;;3.10;76.16
84859;BME280;75115;42.984;23.244;2024-03-25T03:16:00;94029.25;;;3.10;76.38
84859;BME280;75115;42.984;23.244;2024-03-25T03:18:25;94030.69;;;3.13;75.82
84859;BME280;75115;42.984;23.244;2024-03-25T03:20:50;94035.47;;;3.16;75.98
84859;BME280;75115;42.984;23.244;2024-03-25T03:23:16;94032.00;;;3.17;75.73
84859;BME280;75115;42.984;23.244;2024-03-25T03:25:42;94036.75;;;3.04;75.97
84859;BME280;75115;42.984;23.244;2024-03-25T03:28:08;94039.47;;;3.10;76.16
84859;BME280;75115;42.984;23.244;2024-03-25T03:30:33;94052.59;;;3.07;76.63
84859;BME280;75115;42.984;23.244;2024-03-25T03:32:58;94063.81;;;3.06;76.38
84859;BME280;75115;42.984;23.244;2024-03-25T03:35:24;94062.38;;;3.12;76.21
84859;BME280;75115;42.984;23.244;2024-03-25T03:37:49;94077.06;;;2.93;77.62
84859;BME280;75115;42.984;23.244;2024-03-25T03:40:15;94079.78;;;2.92;77.05
84859;BME280;75115;42.984;23.244;2024-03-25T03:42:40;94082.19;;;3.02;76.49
84859;BME280;75115;42.984;23.244;2024-03-25T03:45:07;94086.22;;;3.04;76.50
84859;BME280;75115;42.984;23.244;2024-03-25T03:47:33;94096.16;;;3.07;76.52
84859;BME280;75115;42.984;23.244;2024-03-25T03:49:58;94094.53;;;3.06;76.61
84859;BME280;75115;42.984;23.244;2024-03-25T03:52:24;94093.44;;;3.09;75.87
84859;BME280;75115;42.984;23.244;2024-03-25T03:54:49;94094.53;;;3.06;76.62
84859;BME280;75115;42.984;23.244;2024-03-25T03:57:15;94098.06;;;3.05;77.02
84859;BME280;75115;42.984;23.244;2024-03-25T03:59:40;94111.22;;;3.10;76.58
84859;BME280;75115;42.984;23.244;2024-03-25T04:02:05;94097.41;;;3.03;76.58
84859;BME280;75115;42.984;23.244;2024-03-25T04:04:31;94105.28;;;3.10;76.32
84859;BME280;75115;42.984;23.244;2024-03-25T04:06:56;94110.63;;;3.24;75.91
84859;BME280;75115;42.984;23.244;2024-03-25T04:09:21;94119.28;;;3.32;76.00
84859;BME280;75115;42.984;23.244;2024-03-25T04:11:49;94118.81;;;3.36;74.82
84859;BME280;75115;42.984;23.244;2024-03-25T04:14:14;94121.69;;;3.25;75.84
84859;BME280;75115;42.984;23.244;2024-03-25T04:16:40;94120.88;;;3.24;75.54
84859;BME280;75115;42.984;23.244;2024-03-25T04:19:05;94115.59;;;3.26;75.68
84859;BME280;75115;42.984;23.244;2024-03-25T04:21:30;94124.72;;;3.29;75.96
84859;BME280;75115;42.984;23.244;2024-03-25T04:23:56;94121.31;;;3.20;75.90
84859;BME280;75115;42.984;23.244;2024-03-25T04:26:21;94126.19;;;3.31;75.65
84859;BME280;75115;42.984;23.244;2024-03-25T04:28:47;94124.53;;;3.14;76.80
84859;BME280;75115;42.984;23.244;2024-03-25T04:31:12;94130.63;;;3.21;77.06
84859;BME280;75115;42.984;23.244;2024-03-25T04:33:38;94137.06;;;3.25;76.50
84859;BME280;75115;42.984;23.244;2024-03-25T04:36:03;94142.84;;;3.35;75.71
84859;BME280;75115;42.984;23.244;2024-03-25T04:38:31;94133.38;;;3.28;76.20
84859;BME280;75115;42.984;23.244;2024-03-25T04:40:56;94152.00;;;3.38;76.00
84859;BME280;75115;42.984;23.244;2024-03-25T04:43:21;94146.25;;;3.44;75.27
84859;BME280;75115;42.984;23.244;2024-03-25T04:45:47;94147.06;;;3.53;75.30
84859;BME280;75115;42.984;23.244;2024-03-25T04:48:12;94141.31;;;3.50;75.88
84859;BME280;75115;42.984;23.244;2024-03-25T04:50:37;94151.22;;;3.54;74.88
84859;BME280;75115;42.984;23.244;2024-03-25T04:53:03;94152.19;;;3.53;75.07
84859;BME280;75115;42.984;23.244;2024-03-25T04:55:28;94153.50;;;3.57;74.43
84859;BME280;75115;42.984;23.244;2024-03-25T04:57:54;94152.72;;;3.64;74.21
84859;BME280;75115;42.984;23.244;2024-03-25T05:00:19;94152.22;;;3.61;74.20
84859;BME280;75115;42.984;23.244;2024-03-25T05:02:44;94159.91;;;3.61;73.99
84859;BME280;75115;42.984;23.244;2024-03-25T05:05:10;94160.56;;;3.63;74.45
84859;BME280;75115;42.984;23.244;2024-03-25T05:07:36;94154.19;;;3.75;73.74
84859;BME280;75115;42.984;23.244;2024-03-25T05:10:01;94155.16;;;3.82;73.26
84859;BME280;75115;42.984;23.244;2024-03-25T05:12:30;94153.56;;;3.89;73.12
84859;BME280;75115;42.984;23.244;2024-03-25T05:14:56;94147.31;;;4.00;73.34
84859;BME280;75115;42.984;23.244;2024-03-25T05:17:22;94146.19;;;4.03;72.77
84859;BME280;75115;42.984;23.244;2024-03-25T05:19:47;94143.16;;;4.15;72.33
84859;BME280;75115;42.984;23.244;2024-03-25T05:22:12;94152.94;;;4.20;71.77
84859;BME280;75115;42.984;23.244;2024-03-25T05:24:38;94156.47;;;4.19;71.18
84859;BME280;75115;42.984;23.244;2024-03-25T05:27:04;94166.75;;;4.27;71.90
84859;BME280;75115;42.984;23.244;2024-03-25T05:29:29;94168.50;;;4.51;70.94
84859;BME280;75115;42.984;23.244;2024-03-25T05:31:59;94165.75;;;4.77;70.45
84859;BME280;75115;42.984;23.244;2024-03-25T05:34:26;94166.16;;;4.97;70.12
84859;BME280;75115;42.984;23.244;2024-03-25T05:36:52;94167.28;;;5.11;67.35
84859;BME280;75115;42.984;23.244;2024-03-25T05:39:17;94177.50;;;5.27;68.28
84859;BME280;75115;42.984;23.244;2024-03-25T05:41:43;94180.16;;;5.50;66.60
84859;BME280;75115;42.984;23.244;2024-03-25T05:44:08;94177.41;;;6.14;65.81
84859;BME280;75115;42.984;23.244;2024-03-25T05:46:33;94169.81;;;8.28;58.46
84859;BME280;75115;42.984;23.244;2024-03-25T05:49:03;94171.16;;;11.58;49.76
84859;BME280;75115;42.984;23.244;2024-03-25T05:51:29;94170.53;;;14.91;40.64
84859;BME280;75115;42.984;23.244;2024-03-25T05:53:55;94178.06;;;17.68;33.73
84859;BME280;75115;42.984;23.244;2024-03-25T05:56:20;94166.78;;;20.04;29.78
84859;BME280;75115;42.984;23.244;2024-03-25T05:58:46;94177.75;;;21.86;26.21
84859;BME280;75115;42.984;23.244;2024-03-25T06:01:12;94185.13;;;23.38;23.72
84859;BME280;75115;42.984;23.244;2024-03-25T06:03:37;94184.63;;;24.99;22.32
84859;BME280;75115;42.984;23.244;2024-03-25T06:06:03;94188.00;;;26.16;19.95
84859;BME280;75115;42.984;23.244;2024-03-25T06:08:28;94192.19;;;27.08;18.74
84859;BME280;75115;42.984;23.244;2024-03-25T06:10:54;94190.19;;;28.13;16.94
84859;BME280;75115;42.984;23.244;2024-03-25T06:13:20;94186.47;;;29.14;15.64
84859;BME280;75115;42.984;23.244;2024-03-25T06:15:46;94207.72;;;28.14;17.35
84859;BME280;75115;42.984;23.244;2024-03-25T06:18:11;94204.84;;;28.32;17.30
84859;BME280;75115;42.984;23.244;2024-03-25T06:20:37;94210.13;;;28.24;17.12
84859;BME280;75115;42.984;23.244;2024-03-25T06:23:02;94205.41;;;28.78;16.44
84859;BME280;75115;42.984;23.244;2024-03-25T06:25:28;94205.25;;;29.78;15.05
84859;BME280;75115;42.984;23.244;2024-03-25T06:27:54;94206.88;;;30.56;14.68
84859;BME280;75115;42.984;23.244;2024-03-25T06:30:20;94211.25;;;31.11;13.41
84859;BME280;75115;42.984;23.244;2024-03-25T06:33:04;94212.97;;;31.70;13.73
84859;BME280;75115;42.984;23.244;2024-03-25T06:35:52;94212.03;;;31.87;13.07
84859;BME280;75115;42.984;23.244;2024-03-25T06:38:17;94220.38;;;30.89;13.96
84859;BME280;75115;42.984;23.244;2024-03-25T06:40:45;94217.06;;;31.34;13.55
84859;BME280;75115;42.984;23.244;2024-03-25T06:43:10;94218.66;;;31.05;13.54
84859;BME280;75115;42.984;23.244;2024-03-25T06:45:36;94225.69;;;31.73;12.10
84859;BME280;75115;42.984;23.244;2024-03-25T06:48:01;94231.44;;;31.84;13.07
84859;BME280;75115;42.984;23.244;2024-03-25T06:50:26;94233.84;;;31.43;13.56
84859;BME280;75115;42.984;23.244;2024-03-25T06:52:52;94237.66;;;30.32;13.02
84859;BME280;75115;42.984;23.244;2024-03-25T06:55:17;94245.19;;;29.31;14.99
84859;BME280;75115;42.984;23.244;2024-03-25T06:57:47;94252.88;;;29.07;14.64
84859;BME280;75115;42.984;23.244;2024-03-25T07:00:13;94247.69;;;29.45;14.16
84859;BME280;75115;42.984;23.244;2024-03-25T07:02:39;94247.88;;;29.57;14.45
84859;BME280;75115;42.984;23.244;2024-03-25T07:05:04;94251.97;;;30.66;14.11
84859;BME280;75115;42.984;23.244;2024-03-25T07:07:30;94248.78;;;29.96;13.08
84859;BME280;75115;42.984;23.244;2024-03-25T07:09:56;94261.16;;;28.79;14.32
84859;BME280;75115;42.984;23.244;2024-03-25T07:12:23;94254.88;;;27.01;16.56
84859;BME280;75115;42.984;23.244;2024-03-25T07:14:49;94254.63;;;26.33;17.02
84859;BME280;75115;42.984;23.244;2024-03-25T07:17:14;94262.94;;;24.96;19.57
84859;BME280;75115;42.984;23.244;2024-03-25T07:19:39;94266.13;;;24.26;20.35
84859;BME280;75115;42.984;23.244;2024-03-25T07:22:05;94275.81;;;22.50;21.24
84859;BME280;75115;42.984;23.244;2024-03-25T07:24:30;94276.47;;;21.90;22.22
84859;BME280;75115;42.984;23.244;2024-03-25T07:26:55;94283.72;;;20.71;23.58
84859;BME280;75115;42.984;23.244;2024-03-25T07:29:21;94279.56;;;20.23;25.50
84859;BME280;75115;42.984;23.244;2024-03-25T07:31:46;94289.78;;;20.77;24.73
84859;BME280;75115;42.984;23.244;2024-03-25T07:34:11;94282.53;;;19.94;25.62
84859;BME280;75115;42.984;23.244;2024-03-25T07:36:37;94283.16;;;20.06;25.67
84859;BME280;75115;42.984;23.244;2024-03-25T07:39:04;94287.22;;;19.87;25.41
84859;BME280;75115;42.984;23.244;2024-03-25T07:41:31;94284.16;;;18.77;27.98
84859;BME280;75115;42.984;23.244;2024-03-25T07:43:57;94288.69;;;18.86;27.45
84859;BME280;75115;42.984;23.244;2024-03-25T07:46:22;94291.81;;;18.61;27.20
84859;BME280;75115;42.984;23.244;2024-03-25T07:48:47;94289.66;;;17.76;28.85
84859;BME280;75115;42.984;23.244;2024-03-25T07:51:13;94295.34;;;17.39;30.61
84859;BME280;75115;42.984;23.244;2024-03-25T07:53:38;94294.28;;;16.78;32.16
84859;BME280;75115;42.984;23.244;2024-03-25T07:56:04;94305.41;;;16.33;33.08
84859;BME280;75115;42.984;23.244;2024-03-25T07:58:30;94310.00;;;16.02;33.38
84859;BME280;75115;42.984;23.244;2024-03-25T08:00:55;94311.91;;;15.60;34.71
84859;BME280;75115;42.984;23.244;2024-03-25T08:03:21;94315.84;;;14.48;36.38
84859;BME280;75115;42.984;23.244;2024-03-25T08:05:47;94316.28;;;13.65;38.34
84859;BME280;75115;42.984;23.244;2024-03-25T08:08:12;94317.28;;;13.39;38.68
84859;BME280;75115;42.984;23.244;2024-03-25T08:10:40;94317.22;;;12.83;39.68
84859;BME280;75115;42.984;23.244;2024-03-25T08:13:05;94314.00;;;12.42;41.19
84859;BME280;75115;42.984;23.244;2024-03-25T08:15:30;94320.72;;;12.12;42.38
84859;BME280;75115;42.984;23.244;2024-03-25T08:17:56;94321.16;;;12.02;41.70
84859;BME280;75115;42.984;23.244;2024-03-25T08:20:21;94316.59;;;11.44;42.56
84859;BME280;75115;42.984;23.244;2024-03-25T08:22:48;94322.28;;;10.67;45.22
84859;BME280;75115;42.984;23.244;2024-03-25T08:25:14;94315.28;;;10.19;45.57
84859;BME280;75115;42.984;23.244;2024-03-25T08:27:39;94324.75;;;9.99;47.81
84859;BME280;75115;42.984;23.244;2024-03-25T08:30:05;94320.25;;;9.80;47.97
84859;BME280;75115;42.984;23.244;2024-03-25T08:32:31;94335.19;;;9.49;50.04
84859;BME280;75115;42.984;23.244;2024-03-25T08:34:58;94338.47;;;9.37;50.40
84859;BME280;75115;42.984;23.244;2024-03-25T08:37:23;94332.25;;;9.10;50.84
84859;BME280;75115;42.984;23.244;2024-03-25T08:39:48;94336.75;;;8.80;51.50
84859;BME280;75115;42.984;23.244;2024-03-25T08:42:14;94330.84;;;8.86;50.70
84859;BME280;75115;42.984;23.244;2024-03-25T08:44:39;94333.22;;;8.66;50.89
84859;BME280;75115;42.984;23.244;2024-03-25T08:47:04;94325.81;;;8.63;51.04
84859;BME280;75115;42.984;23.244;2024-03-25T08:49:32;94333.00;;;8.46;51.63
84859;BME280;75115;42.984;23.244;2024-03-25T08:51:57;94330.06;;;8.49;52.98
84859;BME280;75115;42.984;23.244;2024-03-25T08:54:23;94340.31;;;8.42;53.15
84859;BME280;75115;42.984;23.244;2024-03-25T08:56:48;94342.16;;;8.34;52.33
84859;BME280;75115;42.984;23.244;2024-03-25T08:59:13;94349.09;;;8.33;53.29
84859;BME280;75115;42.984;23.244;2024-03-25T09:01:39;94348.59;;;8.38;52.25
84859;BME280;75115;42.984;23.244;2024-03-25T09:04:06;94331.47;;;8.52;52.79
84859;BME280;75115;42.984;23.244;2024-03-25T09:06:31;94341.22;;;8.71;51.62
84859;BME280;75115;42.984;23.244;2024-03-25T09:08:57;94341.44;;;8.91;51.31
84859;BME280;75115;42.984;23.244;2024-03-25T09:11:41;94334.00;;;9.03;51.19
84859;BME280;75115;42.984;23.244;2024-03-25T09:14:06;94337.41;;;9.10;50.08
84859;BME280;75115;42.984;23.244;2024-03-25T09:16:32;94341.63;;;9.32;50.88
84859;BME280;75115;42.984;23.244;2024-03-25T09:18:57;94332.81;;;9.55;49.82
84859;BME280;75115;42.984;23.244;2024-03-25T09:21:25;94329.38;;;9.75;49.93
84859;BME280;75115;42.984;23.244;2024-03-25T09:23:52;94335.50;;;9.68;50.75
84859;BME280;75115;42.984;23.244;2024-03-25T09:26:18;94340.59;;;9.83;47.95
84859;BME280;75115;42.984;23.244;2024-03-25T09:28:43;94333.28;;;9.93;49.01
84859;BME280;75115;42.984;23.244;2024-03-25T09:31:09;94337.72;;;10.06;46.92
84859;BME280;75115;42.984;23.244;2024-03-25T09:33:34;94344.91;;;10.10;48.98
84859;BME280;75115;42.984;23.244;2024-03-25T09:35:59;94338.72;;;10.05;46.66
84859;BME280;75115;42.984;23.244;2024-03-25T09:38:25;94342.25;;;9.90;47.92
84859;BME280;75115;42.984;23.244;2024-03-25T09:40:52;94336.63;;;9.87;48.06
84859;BME280;75115;42.984;23.244;2024-03-25T09:43:25;94338.16;;;9.81;48.65
84859;BME280;75115;42.984;23.244;2024-03-25T09:45:51;94336.38;;;9.82;48.88
84859;BME280;75115;42.984;23.244;2024-03-25T09:48:18;94336.38;;;9.82;49.64
84859;BME280;75115;42.984;23.244;2024-03-25T09:50:46;94345.94;;;9.81;49.26
84859;BME280;75115;42.984;23.244;2024-03-25T09:53:12;94338.97;;;9.82;48.98
84859;BME280;75115;42.984;23.244;2024-03-25T09:55:37;94352.13;;;9.80;48.25
84859;BME280;75115;42.984;23.244;2024-03-25T09:58:03;94333.25;;;9.86;48.16
84859;BME280;75115;42.984;23.244;2024-03-25T10:00:30;94341.31;;;10.05;47.50
84859;BME280;75115;42.984;23.244;2024-03-25T10:02:55;94354.75;;;10.21;48.45
84859;BME280;75115;42.984;23.244;2024-03-25T10:05:21;94356.84;;;10.33;47.25
84859;BME280;75115;42.984;23.244;2024-03-25T10:07:46;94342.97;;;10.19;44.48
84859;BME280;75115;42.984;23.244;2024-03-25T10:10:12;94352.47;;;10.33;47.89
84859;BME280;75115;42.984;23.244;2024-03-25T10:12:37;94352.38;;;10.20;45.95
84859;BME280;75115;42.984;23.244;2024-03-25T10:15:05;94352.06;;;10.36;47.18
84859;BME280;75115;42.984;23.244;2024-03-25T10:17:33;94359.28;;;10.41;47.13
84859;BME280;75115;42.984;23.244;2024-03-25T10:19:59;94356.69;;;10.41;47.05
84859;BME280;75115;42.984;23.244;2024-03-25T10:22:24;94363.19;;;9.95;44.52
84859;BME280;75115;42.984;23.244;2024-03-25T10:24:50;94355.78;;;9.92;46.92
84859;BME280;75115;42.984;23.244;2024-03-25T10:27:20;94354.03;;;9.99;46.17
84859;BME280;75115;42.984;23.244;2024-03-25T10:29:46;94348.25;;;9.97;45.02
84859;BME280;75115;42.984;23.244;2024-03-25T10:32:15;94352.28;;;10.07;46.00
84859;BME280;75115;42.984;23.244;2024-03-25T10:34:40;94346.06;;;9.94;44.93
84859;BME280;75115;42.984;23.244;2024-03-25T10:37:09;94351.97;;;9.88;46.25
84859;BME280;75115;42.984;23.244;2024-03-25T10:39:48;94357.81;;;9.69;45.25
84859;BME280;75115;42.984;23.244;2024-03-25T10:42:18;94364.78;;;9.68;46.87
84859;BME280;75115;42.984;23.244;2024-03-25T10:44:44;94343.53;;;9.52;48.63
84859;BME280;75115;42.984;23.244;2024-03-25T10:47:20;94362.97;;;9.41;46.92
84859;BME280;75115;42.984;23.244;2024-03-25T10:49:48;94366.31;;;9.35;45.72
84859;BME280;75115;42.984;23.244;2024-03-25T10:52:15;94365.19;;;9.22;44.83
84859;BME280;75115;42.984;23.244;2024-03-25T10:54:47;94353.50;;;9.27;47.00
84859;BME280;75115;42.984;23.244;2024-03-25T10:57:13;94358.97;;;9.38;45.92
84859;BME280;75115;42.984;23.244;2024-03-25T10:59:40;94350.75;;;9.56;48.69
84859;BME280;75115;42.984;23.244;2024-03-25T11:02:08;94356.03;;;9.69;48.46
84859;BME280;75115;42.984;23.244;2024-03-25T11:04:34;94358.75;;;9.89;46.51
84859;BME280;75115;42.984;23.244;2024-03-25T11:07:14;94345.84;;;9.68;48.51
84859;BME280;75115;42.984;23.244;2024-03-25T11:09:40;94352.63;;;9.69;48.34
84859;BME280;75115;42.984;23.244;2024-03-25T11:12:07;94360.78;;;9.66;49.98
84859;BME280;75115;42.984;23.244;2024-03-25T11:14:34;94361.94;;;9.57;49.35
84859;BME280;75115;42.984;23.244;2024-03-25T11:17:00;94363.66;;;9.49;48.37
84859;BME280;75115;42.984;23.244;2024-03-25T11:19:27;94366.66;;;9.53;48.07
84859;BME280;75115;42.984;23.244;2024-03-25T11:21:54;94365.44;;;9.77;46.92
84859;BME280;75115;42.984;23.244;2024-03-25T11:24:43;94394.16;;;9.54;49.73
84859;BME280;75115;42.984;23.244;2024-03-25T11:27:09;94408.38;;;9.22;53.49
84859;BME280;75115;42.984;23.244;2024-03-25T11:29:35;94425.22;;;8.60;52.70
84859;BME280;75115;42.984;23.244;2024-03-25T11:32:04;94428.56;;;8.16;56.14
84859;BME280;75115;42.984;23.244;2024-03-25T11:34:30;94432.28;;;7.84;57.46
84859;BME280;75115;42.984;23.244;2024-03-25T11:36:56;94425.28;;;7.70;57.40
84859;BME280;75115;42.984;23.244;2024-03-25T11:39:23;94418.00;;;7.73;57.46
84859;BME280;75115;42.984;23.244;2024-03-25T11:41:49;94428.38;;;8.03;59.17
84859;BME280;75115;42.984;23.244;2024-03-25T11:44:16;94414.78;;;8.24;58.98
84859;BME280;75115;42.984;23.244;2024-03-25T11:46:42;94408.03;;;8.53;60.02
84859;BME280;75115;42.984;23.244;2024-03-25T11:49:12;94410.75;;;8.66;59.61
84859;BME280;75115;42.984;23.244;2024-03-25T11:51:38;94401.91;;;8.90;57.19
84859;BME280;75115;42.984;23.244;2024-03-25T11:54:07;94387.19;;;9.12;57.01
84859;BME280;75115;42.984;23.244;2024-03-25T11:56:36;94396.06;;;9.24;56.81
84859;BME280;75115;42.984;23.244;2024-03-25T11:59:03;94391.13;;;9.50;53.61
84859;BME280;75115;42.984;23.244;2024-03-25T12:01:29;94379.78;;;9.52;51.33
84859;BME280;75115;42.984;23.244;2024-03-25T12:03:54;94380.78;;;9.50;52.64
84859;BME280;75115;42.984;23.244;2024-03-25T12:06:20;94378.81;;;9.31;51.00
84859;BME280;75115;42.984;23.244;2024-03-25T12:08:45;94385.72;;;9.45;51.72
84859;BME280;75115;42.984;23.244;2024-03-25T12:11:31;94376.75;;;9.69;48.60
84859;BME280;75115;42.984;23.244;2024-03-25T12:13:56;94372.63;;;9.82;48.05
84859;BME280;75115;42.984;23.244;2024-03-25T12:16:23;94369.00;;;10.04;48.20
84859;BME280;75115;42.984;23.244;2024-03-25T12:18:49;94364.91;;;10.16;45.78
84859;BME280;75115;42.984;23.244;2024-03-25T12:21:14;94371.56;;;10.26;45.13
84859;BME280;75115;42.984;23.244;2024-03-25T12:23:42;94374.28;;;10.17;43.76
84859;BME280;75115;42.984;23.244;2024-03-25T12:26:07;94376.66;;;10.19;45.69
84859;BME280;75115;42.984;23.244;2024-03-25T12:28:33;94374.75;;;10.28;43.09
84859;BME280;75115;42.984;23.244;2024-03-25T12:31:07;94380.97;;;10.05;40.91
84859;BME280;75115;42.984;23.244;2024-03-25T12:33:40;94394.13;;;10.04;43.46
84859;BME280;75115;42.984;23.244;2024-03-25T12:36:06;94396.00;;;9.88;42.03
84859;BME280;75115;42.984;23.244;2024-03-25T12:38:31;94405.31;;;9.55;43.48
84859;BME280;75115;42.984;23.244;2024-03-25T12:41:23;94426.31;;;9.02;47.74
84859;BME280;75115;42.984;23.244;2024-03-25T12:43:50;94437.06;;;8.69;49.13
84859;BME280;75115;42.984;23.244;2024-03-25T12:46:15;94449.72;;;8.35;51.62
84859;BME280;75115;42.984;23.244;2024-03-25T12:48:41;94437.69;;;8.42;52.46
84859;BME280;75115;42.984;23.244;2024-03-25T12:51:13;94418.97;;;8.55;51.96
84859;BME280;75115;42.984;23.244;2024-03-25T12:53:40;94418.16;;;8.54;50.47